createdAt,value
2023-05-08T00:01:47.892Z,10.10
2023-05-08T00:04:15.271Z,9.52
2023-05-08T00:06:43.243Z,9.10
2023-05-08T00:09:13.359Z,9.68
2023-05-08T00:11:40.526Z,8.50
2023-05-08T00:14:08.012Z,8.25
2023-05-08T00:16:35.149Z,13.10
2023-05-08T00:19:03.225Z,15.90
2023-05-08T00:21:31.368Z,9.70
2023-05-08T00:23:58.525Z,8.75
2023-05-08T00:26:25.951Z,7.55
2023-05-08T00:28:53.197Z,10.40
2023-05-08T00:31:20.454Z,9.52
2023-05-08T00:33:47.666Z,28.42
2023-05-08T00:36:15.979Z,18.48
2023-05-08T00:38:43.585Z,15.65
2023-05-08T00:41:11.017Z,17.17
2023-05-08T00:43:40.165Z,15.18
2023-05-08T00:46:09.919Z,10.70
2023-05-08T00:48:38.102Z,12.00
2023-05-08T00:51:07.920Z,7.57
2023-05-08T00:53:40.562Z,7.85
2023-05-08T00:56:11.110Z,8.85
2023-05-08T00:58:39.377Z,8.73
2023-05-08T01:01:06.688Z,14.40
2023-05-08T01:03:36.054Z,10.85
2023-05-08T01:06:04.307Z,11.30
2023-05-08T01:08:32.251Z,15.00
2023-05-08T01:11:17.588Z,8.95
2023-05-08T01:14:06.585Z,9.70
2023-05-08T01:17:11.844Z,8.20
2023-05-08T01:19:42.153Z,9.82
2023-05-08T01:22:14.782Z,13.63
2023-05-08T01:25:19.329Z,17.85
2023-05-08T01:28:23.868Z,9.65
2023-05-08T01:31:13.313Z,8.07
2023-05-08T01:33:46.285Z,9.20
2023-05-08T01:36:33.272Z,8.80
2023-05-08T01:39:11.928Z,10.10
2023-05-08T01:41:41.569Z,9.02
2023-05-08T01:44:18.266Z,8.20
2023-05-08T01:46:49.690Z,9.02
2023-05-08T01:49:30.107Z,8.98
2023-05-08T01:52:03.187Z,8.88
2023-05-08T01:54:39.448Z,16.63
2023-05-08T01:57:09.533Z,9.15
2023-05-08T01:59:38.777Z,7.53
2023-05-08T02:02:06.980Z,9.43
2023-05-08T02:04:35.950Z,8.75
2023-05-08T02:07:08.386Z,14.95
2023-05-08T02:09:36.964Z,8.35
2023-05-08T02:12:07.060Z,8.45
2023-05-08T02:14:36.049Z,7.45
2023-05-08T02:17:03.950Z,10.07
2023-05-08T02:19:32.892Z,8.25
2023-05-08T02:22:01.478Z,12.43
2023-05-08T02:24:30.320Z,14.07
2023-05-08T02:26:59.252Z,8.52
2023-05-08T02:29:28.471Z,8.50
2023-05-08T02:32:15.114Z,12.53
2023-05-08T02:35:02.617Z,9.65
2023-05-08T02:37:50.493Z,17.27
2023-05-08T02:40:24.094Z,9.07
2023-05-08T02:42:56.434Z,9.98
2023-05-08T02:45:39.075Z,9.43
2023-05-08T02:48:10.474Z,12.10
2023-05-08T02:51:04.483Z,11.23
2023-05-08T02:53:37.709Z,13.63
2023-05-08T02:56:33.544Z,16.45
2023-05-08T03:02:14.532Z,13.23
2023-05-08T03:04:59.664Z,14.70
2023-05-08T03:07:30.819Z,12.73
2023-05-08T03:10:15.880Z,13.18
2023-05-08T03:12:59.052Z,13.55
2023-05-08T03:15:50.739Z,12.23
2023-05-08T03:18:28.596Z,14.77
2023-05-08T03:21:05.907Z,11.50
2023-05-08T03:23:39.964Z,9.00
2023-05-08T03:26:17.986Z,11.00
2023-05-08T03:28:52.931Z,9.25
2023-05-08T03:31:25.986Z,10.18
2023-05-08T03:33:59.350Z,12.90
2023-05-08T03:36:28.988Z,10.80
2023-05-08T03:39:06.071Z,6.85
2023-05-08T03:41:35.858Z,10.35
2023-05-08T03:44:04.643Z,9.63
2023-05-08T03:46:34.434Z,10.55
2023-05-08T03:49:18.214Z,12.30
2023-05-08T03:51:48.762Z,11.52
2023-05-08T03:54:26.230Z,7.93
2023-05-08T03:56:55.188Z,8.60
2023-05-08T03:59:53.231Z,8.38
2023-05-08T04:02:42.239Z,9.45
2023-05-08T04:05:44.680Z,7.32
2023-05-08T04:08:21.406Z,8.00
2023-05-08T04:11:14.235Z,12.88
2023-05-08T04:13:58.781Z,7.65
2023-05-08T04:19:04.470Z,9.18
2023-05-08T04:21:42.776Z,10.38
2023-05-08T04:24:16.192Z,7.78
2023-05-08T04:29:15.531Z,9.00
2023-05-08T04:31:44.489Z,8.38
2023-05-08T04:34:19.673Z,9.00
2023-05-08T04:37:00.308Z,6.72
2023-05-08T04:39:45.612Z,10.00
2023-05-08T04:42:25.644Z,12.43
2023-05-08T04:45:08.144Z,11.60
2023-05-08T04:47:41.739Z,12.30
2023-05-08T04:50:13.321Z,10.10
2023-05-08T04:55:30.888Z,8.35
2023-05-08T04:58:05.629Z,9.35
2023-05-08T05:00:35.423Z,9.77
2023-05-08T05:03:18.773Z,7.90
2023-05-08T05:05:49.762Z,10.85
2023-05-08T05:08:19.110Z,8.75
2023-05-08T05:10:50.109Z,11.93
2023-05-08T05:13:22.549Z,11.57
2023-05-08T05:15:55.139Z,6.68
2023-05-08T05:18:26.760Z,10.07
2023-05-08T05:21:07.304Z,10.98
2023-05-08T05:23:35.902Z,11.65
2023-05-08T05:26:05.940Z,9.25
2023-05-08T05:28:48.651Z,15.25
2023-05-08T05:31:19.077Z,9.55
2023-05-08T05:34:00.729Z,5.75
2023-05-08T05:36:33.820Z,11.50
2023-05-08T05:39:04.728Z,7.88
2023-05-08T05:41:45.517Z,7.32
2023-05-08T05:44:17.212Z,9.18
2023-05-08T05:46:49.878Z,6.88
2023-05-08T05:49:29.308Z,5.38
2023-05-08T05:52:11.451Z,5.45
2023-05-08T05:54:43.137Z,8.02
2023-05-08T05:57:14.298Z,8.73
2023-05-08T05:59:49.810Z,6.28
2023-05-08T06:02:20.294Z,6.82
2023-05-08T06:04:52.548Z,9.63
2023-05-08T06:07:25.178Z,7.57
2023-05-08T06:09:56.199Z,5.27
2023-05-08T06:12:35.145Z,8.95
2023-05-08T06:15:04.317Z,5.78
2023-05-08T06:17:34.329Z,7.93
2023-05-08T06:20:06.997Z,8.50
2023-05-08T06:22:39.345Z,6.65
2023-05-08T06:25:20.548Z,11.13
2023-05-08T06:27:52.520Z,7.55
2023-05-08T06:30:28.614Z,8.40
2023-05-08T06:33:02.037Z,6.43
2023-05-08T06:35:34.647Z,7.57
2023-05-08T06:38:08.762Z,5.95
2023-05-08T06:40:55.475Z,6.15
2023-05-08T06:43:26.160Z,6.80
2023-05-08T06:46:05.489Z,6.65
2023-05-08T06:48:35.164Z,7.75
2023-05-08T06:51:16.391Z,7.93
2023-05-08T06:53:48.261Z,6.95
2023-05-08T06:56:19.274Z,7.53
2023-05-08T06:59:08.579Z,4.10
2023-05-08T07:01:41.079Z,5.47
2023-05-08T07:04:10.826Z,4.97
2023-05-08T07:06:44.239Z,4.20
2023-05-08T07:09:13.542Z,3.72
2023-05-08T07:11:48.252Z,3.20
2023-05-08T07:14:26.815Z,6.53
2023-05-08T07:17:01.860Z,3.47
2023-05-08T07:19:34.011Z,3.88
2023-05-08T07:22:15.647Z,3.58
2023-05-08T07:24:47.831Z,2.80
2023-05-08T07:27:16.888Z,2.42
2023-05-08T07:29:46.661Z,3.03
2023-05-08T07:32:25.251Z,3.83
2023-05-08T07:34:55.624Z,3.17
2023-05-08T07:37:26.680Z,2.25
2023-05-08T07:40:12.099Z,3.28
2023-05-08T07:42:47.598Z,1.55
2023-05-08T07:45:18.203Z,2.45
2023-05-08T07:48:05.941Z,1.73
2023-05-08T07:50:37.711Z,1.13
2023-05-08T07:53:10.665Z,1.95
2023-05-08T07:55:51.336Z,2.33
2023-05-08T07:58:27.639Z,2.28
2023-05-08T08:01:02.673Z,2.92
2023-05-08T08:03:42.334Z,1.45
2023-05-08T08:06:13.719Z,2.13
2023-05-08T08:08:45.310Z,2.13
2023-05-08T08:11:13.721Z,1.40
2023-05-08T08:13:47.325Z,2.63
2023-05-08T08:16:18.380Z,1.13
2023-05-08T08:18:47.945Z,2.47
2023-05-08T08:21:17.912Z,1.75
2023-05-08T08:23:46.798Z,2.60
2023-05-08T08:26:15.964Z,2.17
2023-05-08T08:28:45.724Z,2.70
2023-05-08T08:31:17.612Z,2.40
2023-05-08T08:34:01.421Z,2.38
2023-05-08T08:36:30.991Z,2.80
2023-05-08T08:39:04.632Z,7.22
2023-05-08T08:41:35.218Z,7.43
2023-05-08T08:44:06.512Z,1.80
2023-05-08T08:46:46.161Z,4.15
2023-05-08T08:49:35.328Z,3.92
2023-05-08T08:52:16.952Z,2.85
2023-05-08T08:54:51.711Z,2.10
2023-05-08T09:00:00.268Z,5.50
2023-05-08T09:02:36.095Z,6.03
2023-05-08T09:05:10.108Z,5.88
2023-05-08T09:07:43.991Z,3.58
2023-05-08T09:10:20.144Z,4.38
2023-05-08T09:12:54.152Z,5.28
2023-05-08T09:15:32.676Z,5.25
2023-05-08T09:18:09.292Z,7.63
2023-05-08T09:20:41.734Z,5.03
2023-05-08T09:23:18.736Z,7.32
2023-05-08T09:25:53.614Z,9.30
2023-05-08T09:28:29.352Z,9.55
2023-05-08T09:30:59.505Z,7.50
2023-05-08T09:33:28.990Z,6.93
2023-05-08T09:36:04.630Z,7.82
2023-05-08T09:38:44.648Z,6.10
2023-05-08T09:41:16.182Z,9.32
2023-05-08T09:43:44.833Z,6.03
2023-05-08T09:46:33.348Z,7.85
2023-05-08T09:49:03.894Z,9.85
2023-05-08T09:51:32.800Z,7.22
2023-05-08T09:54:10.401Z,5.57
2023-05-08T09:56:51.095Z,6.95
2023-05-08T09:59:29.707Z,6.97
2023-05-08T10:02:18.417Z,7.63
2023-05-08T10:04:53.228Z,5.50
2023-05-08T10:07:39.430Z,7.45
2023-05-08T10:10:08.644Z,6.53
2023-05-08T10:12:39.386Z,8.27
2023-05-08T10:15:16.686Z,8.18
2023-05-08T10:18:07.412Z,10.15
2023-05-08T10:20:41.768Z,7.68
2023-05-08T10:23:19.207Z,8.25
2023-05-08T10:25:55.593Z,11.50
2023-05-08T10:28:59.583Z,9.25
2023-05-08T10:31:36.461Z,8.50
2023-05-08T10:34:09.635Z,7.63
2023-05-08T10:36:38.713Z,12.20
2023-05-08T10:39:18.163Z,12.73
2023-05-08T10:42:06.119Z,11.60
2023-05-08T10:44:35.833Z,9.73
2023-05-08T10:47:30.705Z,7.65
2023-05-08T10:50:24.191Z,10.02
2023-05-08T10:53:20.548Z,5.40
2023-05-08T10:55:55.822Z,6.32
2023-05-08T10:58:36.527Z,9.18
2023-05-08T11:01:15.497Z,4.78
2023-05-08T11:04:00.461Z,4.00
2023-05-08T11:06:48.905Z,7.45
2023-05-08T11:09:48.686Z,4.80
2023-05-08T11:12:33.667Z,3.47
2023-05-08T11:15:14.134Z,5.22
2023-05-08T11:17:55.001Z,5.72
2023-05-08T11:20:41.309Z,5.90
2023-05-08T11:23:26.282Z,4.55
2023-05-08T11:26:20.248Z,6.15
2023-05-08T11:29:05.349Z,5.15
2023-05-08T11:31:52.158Z,7.00
2023-05-08T11:35:01.020Z,9.75
2023-05-08T11:37:34.435Z,5.07
2023-05-08T11:40:44.569Z,3.97
2023-05-08T11:43:37.654Z,5.32
2023-05-08T11:46:14.578Z,6.80
2023-05-08T11:49:02.009Z,5.40
2023-05-08T11:51:47.111Z,6.05
2023-05-08T11:54:25.341Z,9.77
2023-05-08T11:57:01.585Z,6.90
2023-05-08T11:59:47.761Z,6.28
2023-05-08T12:02:19.482Z,9.13
2023-05-08T12:04:49.742Z,7.30
2023-05-08T12:07:23.119Z,6.55
2023-05-08T12:09:55.790Z,9.13
2023-05-08T12:12:37.060Z,5.18
2023-05-08T12:15:10.769Z,7.30
2023-05-08T12:17:42.574Z,5.25
2023-05-08T12:20:20.784Z,8.45
2023-05-08T12:23:04.721Z,5.47
2023-05-08T12:25:40.731Z,4.53
2023-05-08T12:28:11.930Z,5.65
2023-05-08T12:30:44.139Z,10.73
2023-05-08T12:33:19.012Z,9.95
2023-05-08T12:35:49.385Z,10.95
2023-05-08T12:38:22.368Z,6.00
2023-05-08T12:41:01.873Z,10.30
2023-05-08T12:43:37.887Z,8.18
2023-05-08T12:46:14.285Z,5.50
2023-05-08T12:49:07.367Z,10.23
2023-05-08T12:51:39.821Z,8.15
2023-05-08T12:54:10.822Z,11.07
2023-05-08T12:56:45.565Z,8.90
2023-05-08T12:59:20.086Z,6.60
2023-05-08T13:07:07.305Z,5.88
2023-05-08T13:09:47.858Z,7.38
2023-05-08T13:12:18.864Z,6.93
2023-05-08T13:14:48.613Z,5.82
2023-05-08T13:17:21.768Z,5.53
2023-05-08T13:19:54.370Z,6.93
2023-05-08T13:22:27.031Z,6.82
2023-05-08T13:24:57.314Z,4.55
2023-05-08T13:27:31.383Z,10.32
2023-05-08T13:30:04.250Z,5.03
2023-05-08T13:32:40.846Z,4.45
2023-05-08T13:35:23.005Z,3.58
2023-05-08T13:37:51.832Z,4.10
2023-05-08T13:40:26.936Z,4.57
2023-05-08T13:42:54.999Z,7.97
2023-05-08T13:45:27.165Z,5.90
2023-05-08T13:48:00.646Z,3.70
2023-05-08T13:50:33.260Z,4.93
2023-05-08T13:53:04.010Z,9.07
2023-05-08T13:55:38.109Z,7.93
2023-05-08T13:58:07.973Z,8.70
2023-05-08T14:00:37.613Z,4.75
2023-05-08T14:03:12.753Z,4.65
2023-05-08T14:08:14.722Z,4.32
2023-05-08T14:10:46.966Z,6.00
2023-05-08T14:13:23.016Z,4.90
2023-05-08T14:15:52.857Z,8.38
2023-05-08T14:18:23.985Z,6.10
2023-05-08T14:20:57.463Z,3.28
2023-05-08T14:23:30.286Z,10.88
2023-05-08T14:26:10.565Z,3.72
2023-05-08T14:28:45.320Z,4.45
2023-05-08T14:31:14.783Z,5.85
2023-05-08T14:33:46.921Z,4.53
2023-05-08T14:36:32.913Z,5.43
2023-05-08T14:39:05.188Z,5.38
2023-05-08T14:41:38.790Z,6.00
2023-05-08T14:44:09.857Z,4.07
2023-05-08T14:46:42.582Z,4.43
2023-05-08T14:49:25.261Z,3.53
2023-05-08T14:52:00.232Z,5.50
2023-05-08T14:54:30.950Z,4.05
2023-05-08T14:57:10.303Z,3.13
2023-05-08T14:59:46.126Z,3.47
2023-05-08T15:02:31.113Z,3.35
2023-05-08T15:07:56.572Z,3.95
2023-05-08T15:10:25.861Z,6.05
2023-05-08T15:12:56.512Z,4.75
2023-05-08T15:15:33.978Z,8.02
2023-05-08T15:18:06.859Z,2.90
2023-05-08T15:20:36.706Z,4.70
2023-05-08T15:23:09.993Z,9.65
2023-05-08T15:25:38.804Z,6.43
2023-05-08T15:28:07.877Z,8.73
2023-05-08T15:30:44.058Z,2.20
2023-05-08T15:33:22.913Z,3.17
2023-05-08T15:35:52.405Z,3.03
2023-05-08T15:38:22.925Z,4.75
2023-05-08T15:40:51.636Z,3.53
2023-05-08T15:43:20.544Z,5.80
2023-05-08T15:45:54.374Z,6.35
2023-05-08T15:48:23.914Z,4.05
2023-05-08T15:51:03.455Z,4.50
2023-05-08T15:53:36.262Z,2.80
2023-05-08T15:56:09.065Z,3.97
2023-05-08T15:58:40.045Z,3.53
2023-05-08T16:01:12.741Z,5.40
2023-05-08T16:03:54.496Z,4.00
2023-05-08T16:06:27.623Z,3.50
2023-05-08T16:08:58.788Z,2.40
2023-05-08T16:11:34.820Z,2.72
2023-05-08T16:14:05.058Z,2.60
2023-05-08T16:16:38.174Z,4.10
2023-05-08T16:19:10.245Z,6.28
2023-05-08T16:21:44.429Z,4.20
2023-05-08T16:24:14.811Z,7.72
2023-05-08T16:26:45.874Z,3.15
2023-05-08T16:29:16.642Z,4.47
2023-05-08T16:31:44.932Z,4.78
2023-05-08T16:34:15.132Z,3.88
2023-05-08T16:36:46.992Z,5.30
2023-05-08T16:39:21.729Z,3.35
2023-05-08T16:41:55.932Z,5.60
2023-05-08T16:44:26.503Z,4.05
2023-05-08T16:47:03.877Z,5.65
2023-05-08T16:49:41.201Z,5.57
2023-05-08T16:52:14.273Z,5.43
2023-05-08T16:54:50.038Z,4.43
2023-05-08T16:57:23.531Z,2.55
2023-05-08T16:59:57.719Z,3.20
2023-05-08T17:02:28.940Z,3.92
2023-05-08T17:05:01.428Z,2.70
2023-05-08T17:07:33.136Z,3.35
2023-05-08T17:10:05.781Z,2.92
2023-05-08T17:12:39.739Z,3.72
2023-05-08T17:15:13.203Z,6.90
2023-05-08T17:17:47.688Z,2.97
2023-05-08T17:20:24.497Z,3.05
2023-05-08T17:25:42.419Z,5.18
2023-05-08T17:28:20.273Z,4.53
2023-05-08T17:30:51.467Z,3.67
2023-05-08T17:33:22.830Z,5.00
2023-05-08T17:35:54.753Z,5.03
2023-05-08T17:38:34.512Z,6.53
2023-05-08T17:41:05.856Z,4.72
2023-05-08T17:43:38.575Z,1.95
2023-05-08T17:46:10.572Z,3.72
2023-05-08T17:48:44.703Z,4.78
2023-05-08T17:51:14.861Z,4.03
2023-05-08T17:53:45.501Z,2.83
2023-05-08T17:56:23.036Z,8.20
2023-05-08T17:58:55.575Z,4.10
2023-05-08T18:01:29.803Z,3.72
2023-05-08T18:04:00.311Z,6.28
2023-05-08T18:06:31.192Z,3.58
2023-05-08T18:09:09.081Z,2.30
2023-05-08T18:11:36.985Z,2.65
2023-05-08T18:14:08.173Z,6.88
2023-05-08T18:16:44.006Z,3.58
2023-05-08T18:19:14.080Z,4.55
2023-05-08T18:21:49.740Z,2.28
2023-05-08T18:24:23.056Z,4.20
2023-05-08T18:26:54.219Z,3.58
2023-05-08T18:29:32.488Z,3.28
2023-05-08T18:32:08.007Z,4.88
2023-05-08T18:34:43.223Z,7.25
2023-05-08T18:37:12.902Z,3.42
2023-05-08T18:39:44.969Z,7.28
2023-05-08T18:42:15.853Z,8.63
2023-05-08T18:44:48.172Z,6.47
2023-05-08T18:47:18.453Z,4.82
2023-05-08T18:49:58.462Z,3.80
2023-05-08T18:52:39.036Z,6.55
2023-05-08T18:55:09.002Z,5.97
2023-05-08T18:57:39.751Z,3.55
2023-05-08T19:00:17.450Z,4.97
2023-05-08T19:02:48.734Z,4.57
2023-05-08T19:05:21.314Z,2.83
2023-05-08T19:07:53.393Z,5.28
2023-05-08T19:10:25.140Z,3.05
2023-05-08T19:13:03.958Z,3.17
2023-05-08T19:15:37.802Z,4.80
2023-05-08T19:18:12.739Z,2.55
2023-05-08T19:20:46.099Z,5.38
2023-05-08T19:23:19.110Z,5.32
2023-05-08T19:25:53.837Z,1.98
2023-05-08T19:28:27.771Z,4.70
2023-05-08T19:30:59.710Z,4.78
2023-05-08T19:33:31.323Z,2.55
2023-05-08T19:36:04.524Z,1.55
2023-05-08T19:38:39.291Z,3.47
2023-05-08T19:41:09.098Z,3.67
2023-05-08T19:43:43.106Z,4.20
2023-05-08T19:46:18.685Z,4.20
2023-05-08T19:48:54.613Z,3.70
2023-05-08T19:51:28.796Z,6.00
2023-05-08T19:53:57.646Z,3.80
2023-05-08T19:56:28.043Z,4.93
2023-05-08T19:59:01.377Z,6.55
2023-05-08T20:01:35.346Z,4.00
2023-05-08T20:04:11.203Z,2.67
2023-05-08T20:06:41.360Z,7.72
2023-05-08T20:09:09.541Z,3.20
2023-05-08T20:11:40.705Z,6.20
2023-05-08T20:14:23.416Z,6.25
2023-05-08T20:17:01.350Z,3.47
2023-05-08T20:19:42.118Z,5.68
2023-05-08T20:22:22.164Z,4.43
2023-05-08T20:24:55.201Z,3.72
2023-05-08T20:27:26.309Z,4.68
2023-05-08T20:30:06.471Z,3.22
2023-05-08T20:32:40.388Z,5.60
2023-05-08T20:35:11.865Z,4.40
2023-05-08T20:37:51.781Z,4.10
2023-05-08T20:40:25.210Z,4.72
2023-05-08T20:42:52.917Z,4.07
2023-05-08T20:45:26.044Z,1.70
2023-05-08T20:47:59.331Z,6.43
2023-05-08T20:50:29.210Z,10.18
2023-05-08T20:53:04.407Z,7.10
2023-05-08T20:58:05.885Z,7.63
2023-05-08T21:00:37.379Z,3.00
2023-05-08T21:03:08.320Z,4.55
2023-05-08T21:05:41.569Z,9.75
2023-05-08T21:08:17.093Z,6.78
2023-05-08T21:10:51.935Z,4.90
2023-05-08T21:13:26.411Z,8.48
2023-05-08T21:16:02.125Z,5.53
2023-05-08T21:18:45.125Z,16.42
2023-05-08T21:21:27.958Z,7.28
2023-05-08T21:24:02.219Z,6.68
2023-05-08T21:26:40.758Z,4.68
2023-05-08T21:29:15.789Z,5.80
2023-05-08T21:31:46.733Z,7.32
2023-05-08T21:34:27.200Z,4.70
2023-05-08T21:37:04.307Z,8.40
2023-05-08T21:39:32.787Z,6.75
2023-05-08T21:42:07.536Z,9.18
2023-05-08T21:44:41.970Z,7.03
2023-05-08T21:47:11.333Z,8.80
2023-05-08T21:49:48.442Z,9.57
2023-05-08T21:52:22.227Z,9.45
2023-05-08T21:55:01.350Z,5.53
2023-05-08T21:57:32.104Z,18.25
2023-05-08T22:03:02.956Z,3.58
2023-05-08T22:05:32.334Z,3.40
2023-05-08T22:08:00.803Z,6.32
2023-05-08T22:10:30.534Z,13.05
2023-05-08T22:13:01.546Z,12.25
2023-05-08T22:15:32.452Z,14.60
2023-05-08T22:18:05.486Z,8.00
2023-05-08T22:20:40.188Z,3.55
2023-05-08T22:23:15.367Z,10.53
2023-05-08T22:25:47.228Z,9.48
2023-05-08T22:28:18.296Z,7.43
2023-05-08T22:30:52.866Z,12.55
2023-05-08T22:33:27.076Z,8.88
2023-05-08T22:35:56.821Z,8.13
2023-05-08T22:38:28.619Z,7.65
2023-05-08T22:40:58.777Z,7.00
2023-05-08T22:43:28.237Z,8.98
2023-05-08T22:45:57.295Z,7.35
2023-05-08T22:48:27.212Z,5.63
2023-05-08T22:51:00.326Z,9.45
2023-05-08T22:53:34.420Z,9.07
2023-05-08T22:56:07.067Z,7.78
2023-05-08T22:58:36.436Z,9.77
2023-05-08T23:01:07.138Z,5.97
2023-05-08T23:03:37.679Z,4.57
2023-05-08T23:06:08.795Z,8.20
2023-05-08T23:08:38.251Z,4.97
2023-05-08T23:11:13.929Z,3.67
2023-05-08T23:13:49.470Z,6.43
2023-05-08T23:16:27.198Z,8.02
2023-05-08T23:19:06.319Z,7.00
2023-05-08T23:21:47.407Z,5.38
2023-05-08T23:24:22.531Z,12.32
2023-05-08T23:26:56.834Z,6.15
2023-05-08T23:29:32.027Z,4.30
2023-05-08T23:32:04.650Z,5.32
2023-05-08T23:34:38.657Z,16.77
2023-05-08T23:37:09.452Z,5.60
2023-05-08T23:39:41.408Z,3.25
2023-05-08T23:42:13.311Z,15.85
2023-05-08T23:44:54.777Z,13.63
2023-05-08T23:47:34.494Z,12.27
2023-05-08T23:50:12.261Z,8.85
2023-05-08T23:52:43.121Z,5.35
2023-05-08T23:55:20.006Z,11.05
2023-05-08T23:57:50.931Z,7.43
